X  CloseMetar Aviation Weather Data     RPLL Ninoy Aquino International

Temperature

26°C Temperature

19°C Dewpoint

65% Humidity



Wind

 8 KM/H

 5 MPH

 2 M/S

 4 KTS



90°
Due East
Current Conditions

Partly Cloudy Partly Cloudy
Pressure 1014.92 (hPa) - 29.97 (in)
Visibility 6.2 (mi) - 10 (km)
Airport
Airport-code RPLL

Location Ninoy Aquino International 20 (km)

Metar:
RPLL 021800Z 09004KT 9999 FEW027 SCT100 26/19 Q1015 NOSIG RMK A2997

Time: 01-03-2020 2:00